createdAt,value
2022-09-07T00:01:11.615Z,99131.16
2022-09-07T00:03:39.413Z,99125.13
2022-09-07T00:06:13.003Z,99115.25
2022-09-07T00:08:43.853Z,99123.78
2022-09-07T00:11:16.834Z,99114.06
2022-09-07T00:13:47.946Z,99112.69
2022-09-07T00:16:30.128Z,99113.34
2022-09-07T00:19:01.955Z,99109.22
2022-09-07T00:21:30.211Z,99106.28
2022-09-07T00:23:58.185Z,99111.53
2022-09-07T00:26:29.827Z,99115.72
2022-09-07T00:29:01.030Z,99105.13
2022-09-07T00:31:31.191Z,99110.66
2022-09-07T00:34:01.360Z,99100.63
2022-09-07T00:36:29.405Z,99109.03
2022-09-07T00:38:58.528Z,99111.81
2022-09-07T00:41:26.607Z,99108.53
2022-09-07T00:44:19.957Z,99099.72
2022-09-07T00:46:47.714Z,99105.25
2022-09-07T00:49:21.948Z,99101.69
2022-09-07T00:52:02.922Z,99097.00
2022-09-07T00:54:49.496Z,99085.81
2022-09-07T00:57:17.469Z,99084.66
2022-09-07T00:59:50.505Z,99096.16
2022-09-07T01:02:20.340Z,99082.59
2022-09-07T01:04:53.408Z,99079.91
2022-09-07T01:07:21.219Z,99076.34
2022-09-07T01:09:50.878Z,99070.78
2022-09-07T01:12:18.647Z,99076.69
2022-09-07T01:14:51.826Z,99083.06
2022-09-07T01:17:40.754Z,99081.31
2022-09-07T01:20:26.913Z,99083.59
2022-09-07T01:23:21.542Z,99084.44
2022-09-07T01:26:13.368Z,99080.28
2022-09-07T01:28:42.303Z,99087.00
2022-09-07T01:31:30.119Z,99084.44
2022-09-07T01:34:25.345Z,99082.44
2022-09-07T01:37:36.888Z,99081.28
2022-09-07T01:40:23.999Z,99072.25
2022-09-07T01:43:04.585Z,99073.66
2022-09-07T01:45:37.531Z,99067.19
2022-09-07T01:48:10.554Z,99068.34
2022-09-07T01:50:51.506Z,99078.16
2022-09-07T01:53:37.266Z,99069.91
2022-09-07T01:56:15.190Z,99066.97
2022-09-07T01:58:53.745Z,99075.44
2022-09-07T02:01:38.794Z,99071.31
2022-09-07T02:04:21.607Z,99070.75
2022-09-07T02:07:06.730Z,99065.06
2022-09-07T02:13:08.982Z,99062.09
2022-09-07T02:15:51.906Z,99051.50
2022-09-07T02:18:23.039Z,99054.06
2022-09-07T02:20:58.056Z,99051.94
2022-09-07T02:23:36.486Z,99057.28
2022-09-07T02:26:13.341Z,99065.03
2022-09-07T02:28:41.635Z,99062.31
2022-09-07T02:31:09.782Z,99060.72
2022-09-07T02:33:37.862Z,99062.72
2022-09-07T02:36:07.155Z,99054.47
2022-09-07T02:38:36.024Z,99054.47
2022-09-07T02:41:05.463Z,99047.78
2022-09-07T02:43:33.804Z,99053.91
2022-09-07T02:46:13.226Z,99044.25
2022-09-07T02:49:16.379Z,99048.06
2022-09-07T02:52:20.730Z,99041.69
2022-09-07T02:55:09.501Z,99044.25
2022-09-07T02:58:14.024Z,99048.06
2022-09-07T03:01:04.296Z,99047.47
2022-09-07T03:04:13.510Z,99058.53
2022-09-07T03:06:59.453Z,99045.09
2022-09-07T03:09:32.749Z,99053.00
2022-09-07T03:12:05.409Z,99056.91
2022-09-07T03:14:34.447Z,99041.53
2022-09-07T03:17:03.026Z,99043.13
2022-09-07T03:19:30.858Z,99042.75
2022-09-07T03:21:58.821Z,99044.75
2022-09-07T03:24:26.580Z,99040.06
2022-09-07T03:26:54.362Z,99040.06
2022-09-07T03:29:22.285Z,99053.88
2022-09-07T03:31:50.240Z,99050.13
2022-09-07T03:34:18.080Z,99048.94
2022-09-07T03:36:45.875Z,99053.28
2022-09-07T03:39:14.024Z,99045.00
2022-09-07T03:41:41.842Z,99048.78
2022-09-07T03:44:09.721Z,99034.03
2022-09-07T03:46:37.545Z,99045.66
2022-09-07T03:49:05.343Z,99041.94
2022-09-07T03:51:33.032Z,99044.50
2022-09-07T03:54:00.809Z,99041.72
2022-09-07T03:56:28.650Z,99034.03
2022-09-07T03:58:56.460Z,99043.28
2022-09-07T04:01:27.249Z,99040.16
2022-09-07T04:04:02.151Z,99046.47
2022-09-07T04:06:31.906Z,99041.00
2022-09-07T04:09:10.598Z,99046.13
2022-09-07T04:11:40.414Z,99027.59
2022-09-07T04:14:09.935Z,99040.63
2022-09-07T04:16:38.355Z,99040.63
2022-09-07T04:19:06.248Z,99039.84
2022-09-07T04:21:34.589Z,99039.28
2022-09-07T04:24:02.767Z,99038.69
2022-09-07T04:26:34.094Z,99036.13
2022-09-07T04:29:02.931Z,99043.25
2022-09-07T04:31:31.047Z,99044.22
2022-09-07T04:33:58.816Z,99040.09
2022-09-07T04:36:26.769Z,99041.09
2022-09-07T04:39:04.428Z,99043.44
2022-09-07T04:41:34.979Z,99050.53
2022-09-07T04:44:04.893Z,99047.78
2022-09-07T04:46:36.154Z,99043.66
2022-09-07T04:49:09.468Z,99047.00
2022-09-07T04:51:39.380Z,99046.03
2022-09-07T04:54:07.444Z,99048.00
2022-09-07T04:56:35.328Z,99049.16
2022-09-07T04:59:04.689Z,99053.31
2022-09-07T05:01:32.688Z,99051.13
2022-09-07T05:04:02.342Z,99054.47
2022-09-07T05:06:30.409Z,99054.28
2022-09-07T05:09:00.042Z,99050.50
2022-09-07T05:11:29.927Z,99063.91
2022-09-07T05:14:03.751Z,99053.28
2022-09-07T05:16:32.216Z,99067.81
2022-09-07T05:19:03.882Z,99075.09
2022-09-07T05:21:34.875Z,99073.13
2022-09-07T05:24:04.365Z,99077.03
2022-09-07T05:26:36.576Z,99072.84
2022-09-07T05:31:54.825Z,99070.38
2022-09-07T05:34:31.103Z,99070.13
2022-09-07T05:37:00.181Z,99072.63
2022-09-07T05:39:29.043Z,99074.13
2022-09-07T05:41:56.862Z,99083.13
2022-09-07T05:47:13.407Z,99073.47
2022-09-07T05:49:41.170Z,99071.75
2022-09-07T05:52:09.136Z,99073.19
2022-09-07T05:54:36.913Z,99070.72
2022-09-07T05:57:04.959Z,99073.31
2022-09-07T05:59:33.420Z,99074.38
2022-09-07T06:02:01.445Z,99079.00
2022-09-07T06:04:29.420Z,99079.25
2022-09-07T06:12:33.981Z,99083.28
2022-09-07T06:15:01.788Z,99087.69
2022-09-07T06:17:31.082Z,99076.75
2022-09-07T06:19:58.900Z,99077.13
2022-09-07T06:22:30.219Z,99078.69
2022-09-07T06:24:59.240Z,99074.09
2022-09-07T06:27:27.183Z,99068.72
2022-09-07T06:29:55.563Z,99077.78
2022-09-07T06:35:12.491Z,99071.16
2022-09-07T06:37:41.482Z,99069.38
2022-09-07T06:40:11.112Z,99071.25
2022-09-07T06:42:39.262Z,99072.06
2022-09-07T06:45:07.679Z,99071.44
2022-09-07T06:47:35.551Z,99071.78
2022-09-07T06:50:03.602Z,99075.75
2022-09-07T06:55:19.217Z,99072.22
2022-09-07T06:57:46.990Z,99075.25
2022-09-07T07:00:15.278Z,99066.34
2022-09-07T07:02:43.010Z,99060.28
2022-09-07T07:05:10.779Z,99068.91
2022-09-07T07:07:38.580Z,99071.94
2022-09-07T07:10:06.884Z,99081.34
2022-09-07T07:15:04.307Z,99080.06
2022-09-07T07:17:32.079Z,99076.34
2022-09-07T07:19:59.848Z,99063.44
2022-09-07T07:22:46.173Z,99078.09
2022-09-07T07:25:15.199Z,99086.00
2022-09-07T07:27:43.171Z,99092.63
2022-09-07T07:30:11.330Z,99086.25
2022-09-07T07:32:39.875Z,99084.00
2022-09-07T07:35:08.897Z,99089.81
2022-09-07T07:37:37.456Z,99084.19
2022-09-07T07:40:17.839Z,99093.91
2022-09-07T07:42:48.210Z,99093.22
2022-09-07T07:48:04.427Z,99097.75
2022-09-07T07:50:34.579Z,99100.16
2022-09-07T07:55:51.348Z,99104.13
2022-09-07T07:58:19.645Z,99114.81
2022-09-07T08:00:54.595Z,99100.00
2022-09-07T08:03:24.774Z,99102.31
2022-09-07T08:05:52.890Z,99100.75
2022-09-07T08:08:23.683Z,99113.03
2022-09-07T08:10:51.450Z,99100.28
2022-09-07T08:13:19.343Z,99101.81
2022-09-07T08:15:47.397Z,99102.56
2022-09-07T08:18:17.554Z,99098.38
2022-09-07T08:20:45.302Z,99101.47
2022-09-07T08:23:14.793Z,99091.81
2022-09-07T08:25:54.305Z,99104.25
2022-09-07T08:28:23.651Z,99094.00
2022-09-07T08:30:52.149Z,99101.69
2022-09-07T08:33:20.268Z,99089.81
2022-09-07T08:36:03.498Z,99087.91
2022-09-07T08:38:34.197Z,99087.50
2022-09-07T08:41:18.609Z,99090.00
2022-09-07T08:43:57.209Z,99088.97
2022-09-07T08:46:49.062Z,99081.03
2022-09-07T08:49:27.188Z,99070.88
2022-09-07T08:52:12.994Z,99069.84
2022-09-07T08:54:45.918Z,99066.50
2022-09-07T08:57:25.138Z,99065.53
2022-09-07T09:00:07.866Z,99061.88
2022-09-07T09:02:43.197Z,99059.69
2022-09-07T09:05:23.712Z,99064.09
2022-09-07T09:08:18.367Z,99066.13
2022-09-07T09:10:55.443Z,99054.94
2022-09-07T09:13:56.020Z,99055.75
2022-09-07T09:16:55.080Z,99054.56
2022-09-07T09:19:34.521Z,99055.19
2022-09-07T09:22:20.725Z,99047.00
2022-09-07T09:25:26.787Z,99046.97
2022-09-07T09:27:54.521Z,99042.81
2022-09-07T09:30:24.582Z,99042.31
2022-09-07T09:33:13.535Z,99039.53
2022-09-07T09:35:42.554Z,99030.19
2022-09-07T09:38:43.544Z,99032.03
2022-09-07T09:41:16.267Z,99029.78
2022-09-07T09:43:56.809Z,99031.13
2022-09-07T09:46:34.426Z,99016.19
2022-09-07T09:49:28.360Z,99024.09
2022-09-07T09:54:53.860Z,99014.72
2022-09-07T10:01:23.107Z,99011.16
2022-09-07T10:06:23.083Z,99006.44
2022-09-07T10:09:02.518Z,99005.34
2022-09-07T10:14:47.632Z,99004.38
2022-09-07T10:17:35.681Z,99007.94
2022-09-07T10:20:20.085Z,99004.25
2022-09-07T10:22:53.287Z,98998.28
2022-09-07T10:25:40.168Z,98996.84
2022-09-07T10:28:14.244Z,98994.25
2022-09-07T10:31:03.217Z,98990.13
2022-09-07T10:36:57.981Z,98984.09
2022-09-07T10:39:41.638Z,98971.50
2022-09-07T10:42:09.393Z,98967.50
2022-09-07T10:45:13.565Z,98971.81
2022-09-07T10:48:06.126Z,98963.47
2022-09-07T10:50:56.928Z,98955.47
2022-09-07T10:57:32.350Z,98949.63
2022-09-07T11:00:18.197Z,98955.91
2022-09-07T11:03:25.329Z,98934.50
2022-09-07T11:06:15.289Z,98937.59
2022-09-07T11:12:04.279Z,98933.59
2022-09-07T11:15:04.533Z,98929.31
2022-09-07T11:17:50.722Z,98929.91
2022-09-07T11:20:29.186Z,98927.31
2022-09-07T11:23:11.319Z,98929.78
2022-09-07T11:26:22.090Z,98914.66
2022-09-07T11:32:21.688Z,98914.19
2022-09-07T11:34:54.340Z,98918.06
2022-09-07T11:37:46.868Z,98913.13
2022-09-07T11:40:56.138Z,98907.38
2022-09-07T11:43:46.031Z,98911.09
2022-09-07T11:46:32.882Z,98910.78
2022-09-07T11:49:04.473Z,98907.22
2022-09-07T11:51:46.557Z,98903.84
2022-09-07T11:54:32.702Z,98901.97
2022-09-07T11:57:26.063Z,98902.25
2022-09-07T12:00:02.396Z,98897.03
2022-09-07T12:03:00.195Z,98906.28
2022-09-07T12:06:11.583Z,98896.56
2022-09-07T12:09:14.047Z,98892.25
2022-09-07T12:12:19.825Z,98882.84
2022-09-07T12:15:57.365Z,98880.34
2022-09-07T12:18:31.657Z,98879.00
2022-09-07T12:20:59.437Z,98882.53
2022-09-07T12:23:31.716Z,98875.94
2022-09-07T12:26:33.573Z,98876.22
2022-09-07T12:29:01.110Z,98867.59
2022-09-07T12:32:07.420Z,98874.25
2022-09-07T12:34:53.460Z,98871.63
2022-09-07T12:37:27.229Z,98871.00
2022-09-07T12:40:34.632Z,98865.44
2022-09-07T12:43:14.225Z,98864.69
2022-09-07T12:45:42.299Z,98865.63
2022-09-07T12:48:16.008Z,98866.53
2022-09-07T12:54:23.525Z,98862.06
2022-09-07T12:57:32.383Z,98861.00
2022-09-07T13:00:25.655Z,98855.75
2022-09-07T13:02:56.855Z,98863.00
2022-09-07T13:05:56.376Z,98862.06
2022-09-07T13:08:39.969Z,98850.06
2022-09-07T13:11:25.745Z,98843.44
2022-09-07T13:14:03.904Z,98840.97
2022-09-07T13:19:53.453Z,98838.94
2022-09-07T13:22:33.383Z,98834.66
2022-09-07T13:25:23.749Z,98823.22
2022-09-07T13:27:57.400Z,98828.13
2022-09-07T13:31:07.244Z,98826.75
2022-09-07T13:33:34.984Z,98837.84
2022-09-07T13:36:05.335Z,98825.34
2022-09-07T13:38:36.876Z,98833.03
2022-09-07T13:41:32.728Z,98830.91
2022-09-07T13:44:03.852Z,98835.22
2022-09-07T13:47:11.632Z,98833.22
2022-09-07T13:50:05.918Z,98830.59
2022-09-07T13:53:13.926Z,98830.91
2022-09-07T13:55:48.088Z,98828.28
2022-09-07T13:58:38.010Z,98836.47
2022-09-07T14:01:19.039Z,98826.75
2022-09-07T14:03:53.790Z,98825.66
2022-09-07T14:06:21.447Z,98830.16
2022-09-07T14:08:54.131Z,98831.50
2022-09-07T14:11:42.535Z,98826.44
2022-09-07T14:14:17.725Z,98826.09
2022-09-07T14:17:11.532Z,98829.50
2022-09-07T14:19:50.782Z,98829.63
2022-09-07T14:22:21.981Z,98821.31
2022-09-07T14:24:54.368Z,98827.00
2022-09-07T14:27:41.238Z,98819.63
2022-09-07T14:30:32.092Z,98821.94
2022-09-07T14:33:13.456Z,98815.28
2022-09-07T14:35:42.085Z,98817.78
2022-09-07T14:41:20.576Z,98809.31
2022-09-07T14:43:58.351Z,98802.97
2022-09-07T14:46:36.879Z,98800.53
2022-09-07T14:49:21.619Z,98811.47
2022-09-07T14:51:50.478Z,98800.66
2022-09-07T14:54:27.405Z,98810.38
2022-09-07T14:57:10.194Z,98803.13
2022-09-07T14:59:46.921Z,98803.44
2022-09-07T15:02:25.433Z,98805.00
2022-09-07T15:05:14.977Z,98796.63
2022-09-07T15:07:48.491Z,98804.50
2022-09-07T15:10:41.270Z,98799.75
2022-09-07T15:13:34.282Z,98800.97
2022-09-07T15:16:06.216Z,98805.91
2022-09-07T15:19:43.076Z,98802.53
2022-09-07T15:22:13.397Z,98809.78
2022-09-07T15:24:41.165Z,98804.72
2022-09-07T15:27:28.879Z,98803.47
2022-09-07T15:29:56.589Z,98808.84
2022-09-07T15:32:24.497Z,98801.31
2022-09-07T15:34:52.167Z,98806.72
2022-09-07T15:40:22.530Z,98808.78
2022-09-07T15:43:19.609Z,98808.44
2022-09-07T15:45:39.688Z,98813.63
2022-09-07T15:48:07.657Z,98812.44
2022-09-07T15:50:35.301Z,98800.53
2022-09-07T15:53:03.344Z,98804.47
2022-09-07T15:55:31.084Z,98820.13
2022-09-07T15:58:11.043Z,98816.47
2022-09-07T16:00:40.099Z,98814.13
2022-09-07T16:03:08.559Z,98818.41
2022-09-07T16:05:44.133Z,98822.59
2022-09-07T16:08:32.717Z,98825.81
2022-09-07T16:11:18.707Z,98821.41
2022-09-07T16:13:48.128Z,98819.53
2022-09-07T16:16:16.432Z,98824.47
2022-09-07T16:18:46.690Z,98826.22
2022-09-07T16:21:15.778Z,98826.97
2022-09-07T16:23:48.928Z,98832.38
2022-09-07T16:26:20.823Z,98832.03
2022-09-07T16:28:52.626Z,98831.13
2022-09-07T16:31:27.477Z,98831.31
2022-09-07T16:33:55.287Z,98838.75
2022-09-07T16:36:23.721Z,98833.59
2022-09-07T16:39:00.455Z,98838.41
2022-09-07T16:41:31.845Z,98834.91
2022-09-07T16:43:59.664Z,98833.50
2022-09-07T16:46:34.913Z,98842.38
2022-09-07T16:49:04.148Z,98847.91
2022-09-07T16:51:32.048Z,98845.16
2022-09-07T16:54:00.685Z,98847.22
2022-09-07T16:56:34.570Z,98843.03
2022-09-07T16:59:07.126Z,98853.13
2022-09-07T17:01:40.395Z,98850.13
2022-09-07T17:04:11.311Z,98850.75
2022-09-07T17:06:40.515Z,98855.25
2022-09-07T17:09:08.393Z,98855.78
2022-09-07T17:11:37.371Z,98855.56
2022-09-07T17:14:06.731Z,98858.78
2022-09-07T17:16:39.109Z,98865.13
2022-09-07T17:22:00.013Z,98873.03
2022-09-07T17:24:27.950Z,98867.66
2022-09-07T18:01:50.902Z,98932.63
2022-09-07T18:04:18.820Z,98938.34
2022-09-07T18:06:46.562Z,98932.63
2022-09-07T18:09:14.514Z,98938.84
2022-09-07T18:11:45.757Z,98941.44
2022-09-07T18:14:15.296Z,98937.31
2022-09-07T18:16:46.142Z,98939.38
2022-09-07T18:19:14.316Z,98951.31
2022-09-07T18:21:44.006Z,98959.63
2022-09-07T18:24:22.987Z,98954.97
2022-09-07T18:26:53.863Z,98965.34
2022-09-07T18:29:32.481Z,98958.06
2022-09-07T18:32:05.694Z,98969.97
2022-09-07T18:34:37.698Z,98971.78
2022-09-07T18:37:06.742Z,98973.59
2022-09-07T18:39:35.826Z,98971.50
2022-09-07T18:42:04.158Z,98976.72
2022-09-07T18:47:27.841Z,98980.06
2022-09-07T18:49:57.343Z,98975.66
2022-09-07T18:55:14.151Z,98964.25
2022-09-07T18:57:42.913Z,98975.63
2022-09-07T19:00:12.977Z,98981.31
2022-09-07T19:02:41.007Z,98981.31
2022-09-07T19:07:57.000Z,98985.91
2022-09-07T19:10:24.785Z,98981.25
2022-09-07T19:12:52.754Z,98983.06
2022-09-07T19:15:20.886Z,98982.81
2022-09-07T19:17:48.720Z,98963.13
2022-09-07T19:20:17.572Z,98972.19
2022-09-07T19:22:45.239Z,98974.78
2022-09-07T19:25:12.937Z,98975.00
2022-09-07T19:27:40.662Z,98968.50
2022-09-07T19:30:09.346Z,98970.78
2022-09-07T19:32:38.257Z,98961.44
2022-09-07T19:35:06.108Z,98967.66
2022-09-07T19:37:33.781Z,98962.94
2022-09-07T19:40:02.074Z,98962.94
2022-09-07T19:42:30.047Z,98960.34
2022-09-07T19:44:57.701Z,98962.94
2022-09-07T19:47:25.341Z,98952.56
2022-09-07T19:49:53.017Z,98954.34
2022-09-07T19:52:20.703Z,98949.91
2022-09-07T19:54:48.423Z,98953.28
2022-09-07T19:57:16.077Z,98952.50
2022-09-07T19:59:45.712Z,98945.47
2022-09-07T20:02:13.485Z,98944.69
2022-09-07T20:04:41.224Z,98958.63
2022-09-07T20:07:09.008Z,98949.75
2022-09-07T20:09:36.887Z,98948.44
2022-09-07T20:12:06.783Z,98963.72
2022-09-07T20:14:34.603Z,98962.38
2022-09-07T20:17:02.457Z,98959.25
2022-09-07T20:19:30.164Z,98956.41
2022-09-07T20:21:57.975Z,98962.56
2022-09-07T20:24:25.808Z,98961.25
2022-09-07T20:26:53.616Z,98958.41
2022-09-07T20:29:27.903Z,98957.84
2022-09-07T20:31:59.355Z,98957.84
2022-09-07T20:34:28.995Z,98950.06
2022-09-07T20:36:57.031Z,98948.97
2022-09-07T20:39:25.043Z,98955.69
2022-09-07T20:41:53.092Z,98953.59
2022-09-07T20:44:20.763Z,98959.75
2022-09-07T20:46:48.597Z,98961.75
2022-09-07T20:49:16.428Z,98964.84
2022-09-07T20:51:44.150Z,98950.06
2022-09-07T20:54:11.910Z,98950.31
2022-09-07T20:56:39.630Z,98948.47
2022-09-07T20:59:07.313Z,98950.28
2022-09-07T21:01:35.373Z,98940.91
2022-09-07T21:04:04.153Z,98951.25
2022-09-07T21:06:33.241Z,98956.88
2022-09-07T21:09:01.528Z,98949.06
2022-09-07T21:11:33.596Z,98962.50
2022-09-07T21:14:12.506Z,98965.53
2022-09-07T21:16:40.873Z,98969.16
2022-09-07T21:19:13.144Z,98970.16
2022-09-07T21:21:42.893Z,98961.81
2022-09-07T21:24:28.432Z,98971.34
2022-09-07T21:26:56.057Z,98980.84
2022-09-07T21:29:25.752Z,98976.72
2022-09-07T21:31:54.622Z,98976.19
2022-09-07T21:34:23.297Z,98977.13
2022-09-07T21:36:52.028Z,98969.34
2022-09-07T21:39:20.867Z,98975.75
2022-09-07T21:41:48.539Z,98968.50
2022-09-07T21:44:16.774Z,98963.88
2022-09-07T21:46:45.040Z,98965.13
2022-09-07T21:49:12.742Z,98954.28
2022-09-07T21:51:40.461Z,98951.16
2022-09-07T21:54:08.276Z,98951.94
2022-09-07T21:56:36.723Z,98960.16
2022-09-07T21:59:05.216Z,98950.56
2022-09-07T22:01:33.620Z,98942.44
2022-09-07T22:04:04.934Z,98958.44
2022-09-07T22:06:34.260Z,98964.06
2022-09-07T22:09:04.065Z,98961.72
2022-09-07T22:11:32.711Z,98967.34
2022-09-07T22:14:04.259Z,98959.84
2022-09-07T22:16:35.276Z,98962.63
2022-09-07T22:19:03.499Z,98965.72
2022-09-07T22:21:31.598Z,98963.63
2022-09-07T22:24:03.937Z,98957.34
2022-09-07T22:26:39.545Z,98971.59
2022-09-07T22:29:12.105Z,98968.25
2022-09-07T22:31:40.267Z,98965.66
2022-09-07T22:34:09.506Z,98963.06
2022-09-07T22:36:43.299Z,98964.88
2022-09-07T22:39:18.505Z,98963.28
2022-09-07T22:41:47.696Z,98961.50
2022-09-07T22:44:18.629Z,98966.13
2022-09-07T22:46:47.749Z,98970.97
2022-09-07T22:49:17.145Z,98964.50
2022-09-07T22:51:45.650Z,98965.97
2022-09-07T22:54:13.690Z,98965.69
2022-09-07T22:56:41.698Z,98959.22
2022-09-07T22:59:10.460Z,98957.09
2022-09-07T23:01:38.819Z,98957.59
2022-09-07T23:04:07.942Z,98949.75
2022-09-07T23:06:38.741Z,98954.13
2022-09-07T23:09:18.221Z,98958.22
2022-09-07T23:11:47.849Z,98956.66
2022-09-07T23:14:22.202Z,98947.28
2022-09-07T23:26:38.274Z,98940.72
2022-09-07T23:29:06.660Z,98945.09
2022-09-07T23:31:35.455Z,98946.38
2022-09-07T23:34:04.138Z,98942.47
2022-09-07T23:36:32.319Z,98931.81
2022-09-07T23:39:01.237Z,98928.91
2022-09-07T23:41:29.071Z,98931.50
2022-09-07T23:43:57.740Z,98919.38
2022-09-07T23:46:25.771Z,98929.94
2022-09-07T23:48:53.559Z,98928.38
2022-09-07T23:51:24.312Z,98934.06
2022-09-07T23:53:53.526Z,98929.94
2022-09-07T23:56:24.466Z,98948.75
2022-09-07T23:58:52.362Z,98954.78
